sensor_id;sensor_type;location;lat;lon;timestamp;pressure;altitude;pressure_sealevel;temperature;humidity
65872;BME280;52653;50.080;21.992;2023-01-28T00:02:02;99586.67;;;-1.11;83.99
65872;BME280;52653;50.080;21.992;2023-01-28T00:04:53;99581.02;;;-1.10;83.94
65872;BME280;52653;50.080;21.992;2023-01-28T00:07:43;99583.77;;;-1.11;83.76
65872;BME280;52653;50.080;21.992;2023-01-28T00:10:35;99579.36;;;-1.13;83.74
65872;BME280;52653;50.080;21.992;2023-01-28T00:13:29;99572.69;;;-1.16;83.56
65872;BME280;52653;50.080;21.992;2023-01-28T00:16:20;99575.90;;;-1.17;83.70
65872;BME280;52653;50.080;21.992;2023-01-28T00:19:12;99576.32;;;-1.20;83.67
65872;BME280;52653;50.080;21.992;2023-01-28T00:21:55;99580.61;;;-1.20;83.74
65872;BME280;52653;50.080;21.992;2023-01-28T00:24:46;99579.30;;;-1.22;83.54
65872;BME280;52653;50.080;21.992;2023-01-28T00:27:37;99584.23;;;-1.24;83.68
65872;BME280;52653;50.080;21.992;2023-01-28T00:30:29;99586.81;;;-1.24;83.76
65872;BME280;52653;50.080;21.992;2023-01-28T00:33:14;99587.02;;;-1.23;83.79
65872;BME280;52653;50.080;21.992;2023-01-28T00:36:06;99588.95;;;-1.22;83.68
65872;BME280;52653;50.080;21.992;2023-01-28T00:38:56;99588.96;;;-1.22;83.67
65872;BME280;52653;50.080;21.992;2023-01-28T00:41:48;99588.85;;;-1.20;83.59
65872;BME280;52653;50.080;21.992;2023-01-28T00:44:39;99591.47;;;-1.20;83.47
65872;BME280;52653;50.080;21.992;2023-01-28T00:47:13;99590.45;;;-1.19;83.32
65872;BME280;52653;50.080;21.992;2023-01-28T00:50:08;99597.86;;;-1.19;83.16
65872;BME280;52653;50.080;21.992;2023-01-28T00:52:59;99599.59;;;-1.19;83.19
65872;BME280;52653;50.080;21.992;2023-01-28T00:55:51;99600.30;;;-1.18;83.10
65872;BME280;52653;50.080;21.992;2023-01-28T00:58:44;99604.15;;;-1.16;83.00
65872;BME280;52653;50.080;21.992;2023-01-28T01:01:35;99600.38;;;-1.16;82.69
65872;BME280;52653;50.080;21.992;2023-01-28T01:04:26;99599.72;;;-1.15;82.57
65872;BME280;52653;50.080;21.992;2023-01-28T01:07:24;99598.69;;;-1.15;82.28
65872;BME280;52653;50.080;21.992;2023-01-28T01:10:23;99601.14;;;-1.14;82.35
65872;BME280;52653;50.080;21.992;2023-01-28T01:13:14;99601.31;;;-1.14;82.21
65872;BME280;52653;50.080;21.992;2023-01-28T01:16:06;99601.38;;;-1.13;82.27
65872;BME280;52653;50.080;21.992;2023-01-28T01:18:59;99606.25;;;-1.12;82.26
65872;BME280;52653;50.080;21.992;2023-01-28T01:21:50;99609.04;;;-1.11;82.06
65872;BME280;52653;50.080;21.992;2023-01-28T01:24:34;99606.64;;;-1.11;81.83
65872;BME280;52653;50.080;21.992;2023-01-28T01:27:16;99603.41;;;-1.10;81.93
65872;BME280;52653;50.080;21.992;2023-01-28T01:30:08;99601.52;;;-1.10;81.97
65872;BME280;52653;50.080;21.992;2023-01-28T01:32:52;99599.12;;;-1.10;81.57
65872;BME280;52653;50.080;21.992;2023-01-28T01:35:43;99603.61;;;-1.10;81.74
65872;BME280;52653;50.080;21.992;2023-01-28T01:38:35;99603.61;;;-1.09;81.49
65872;BME280;52653;50.080;21.992;2023-01-28T01:41:28;99600.89;;;-1.09;81.53
65872;BME280;52653;50.080;21.992;2023-01-28T01:47:30;99607.18;;;-1.07;81.32
65872;BME280;52653;50.080;21.992;2023-01-28T01:50:24;99609.13;;;-1.06;81.13
65872;BME280;52653;50.080;21.992;2023-01-28T01:53:18;99612.42;;;-1.05;81.34
65872;BME280;52653;50.080;21.992;2023-01-28T01:56:11;99614.98;;;-1.06;81.01
65872;BME280;52653;50.080;21.992;2023-01-28T01:59:04;99614.09;;;-1.06;81.08
65872;BME280;52653;50.080;21.992;2023-01-28T02:01:49;99615.63;;;-1.06;80.97
65872;BME280;52653;50.080;21.992;2023-01-28T02:04:42;99619.20;;;-1.07;81.15
65872;BME280;52653;50.080;21.992;2023-01-28T02:07:34;99618.49;;;-1.08;80.93
65872;BME280;52653;50.080;21.992;2023-01-28T02:10:25;99617.92;;;-1.09;80.98
65872;BME280;52653;50.080;21.992;2023-01-28T02:13:17;99614.27;;;-1.10;80.91
65872;BME280;52653;50.080;21.992;2023-01-28T02:16:09;99616.81;;;-1.11;80.93
65872;BME280;52653;50.080;21.992;2023-01-28T02:19:07;99617.11;;;-1.12;80.68
65872;BME280;52653;50.080;21.992;2023-01-28T02:22:09;99619.29;;;-1.13;80.65
65872;BME280;52653;50.080;21.992;2023-01-28T02:25:14;99615.23;;;-1.15;80.59
65872;BME280;52653;50.080;21.992;2023-01-28T02:28:16;99617.06;;;-1.16;80.93
65872;BME280;52653;50.080;21.992;2023-01-28T02:31:18;99620.66;;;-1.16;80.90
65872;BME280;52653;50.080;21.992;2023-01-28T02:34:07;99620.77;;;-1.18;80.78
65872;BME280;52653;50.080;21.992;2023-01-28T02:37:01;99618.84;;;-1.19;80.99
65872;BME280;52653;50.080;21.992;2023-01-28T02:39:49;99612.77;;;-1.20;80.79
65872;BME280;52653;50.080;21.992;2023-01-28T02:42:41;99615.32;;;-1.21;80.75
65872;BME280;52653;50.080;21.992;2023-01-28T02:45:18;99616.16;;;-1.21;80.82
65872;BME280;52653;50.080;21.992;2023-01-28T02:48:10;99616.16;;;-1.22;80.84
65872;BME280;52653;50.080;21.992;2023-01-28T02:51:02;99618.70;;;-1.23;80.67
65872;BME280;52653;50.080;21.992;2023-01-28T02:53:56;99610.79;;;-1.23;80.66
65872;BME280;52653;50.080;21.992;2023-01-28T02:56:51;99614.77;;;-1.22;80.60
65872;BME280;52653;50.080;21.992;2023-01-28T02:59:47;99613.86;;;-1.23;80.57
65872;BME280;52653;50.080;21.992;2023-01-28T03:02:44;99617.46;;;-1.24;80.58
65872;BME280;52653;50.080;21.992;2023-01-28T03:05:43;99620.34;;;-1.25;80.64
65872;BME280;52653;50.080;21.992;2023-01-28T03:08:58;99620.98;;;-1.25;80.55
65872;BME280;52653;50.080;21.992;2023-01-28T03:12:02;99621.55;;;-1.27;80.37
65872;BME280;52653;50.080;21.992;2023-01-28T03:15:13;99619.14;;;-1.28;80.50
65872;BME280;52653;50.080;21.992;2023-01-28T03:18:24;99614.64;;;-1.28;80.58
65872;BME280;52653;50.080;21.992;2023-01-28T03:21:36;99616.30;;;-1.29;80.37
65872;BME280;52653;50.080;21.992;2023-01-28T03:24:46;99618.11;;;-1.31;80.45
65872;BME280;52653;50.080;21.992;2023-01-28T03:27:58;99619.11;;;-1.32;80.25
65872;BME280;52653;50.080;21.992;2023-01-28T03:31:10;99619.90;;;-1.34;80.52
65872;BME280;52653;50.080;21.992;2023-01-28T03:34:20;99617.59;;;-1.36;79.78
65872;BME280;52653;50.080;21.992;2023-01-28T03:37:29;99616.63;;;-1.38;80.05
65872;BME280;52653;50.080;21.992;2023-01-28T03:40:38;99619.96;;;-1.39;80.14
65872;BME280;52653;50.080;21.992;2023-01-28T03:43:38;99619.55;;;-1.41;79.78
65872;BME280;52653;50.080;21.992;2023-01-28T03:46:30;99620.69;;;-1.43;79.82
65872;BME280;52653;50.080;21.992;2023-01-28T03:49:21;99620.34;;;-1.42;80.09
65872;BME280;52653;50.080;21.992;2023-01-28T03:52:13;99619.48;;;-1.43;79.85
65872;BME280;52653;50.080;21.992;2023-01-28T03:55:05;99625.11;;;-1.44;79.63
65872;BME280;52653;50.080;21.992;2023-01-28T03:58:03;99622.66;;;-1.44;79.75
65872;BME280;52653;50.080;21.992;2023-01-28T04:00:48;99624.92;;;-1.44;79.53
65872;BME280;52653;50.080;21.992;2023-01-28T04:03:40;99622.49;;;-1.44;79.43
65872;BME280;52653;50.080;21.992;2023-01-28T04:06:31;99624.02;;;-1.45;79.62
65872;BME280;52653;50.080;21.992;2023-01-28T04:09:25;99628.85;;;-1.44;79.59
65872;BME280;52653;50.080;21.992;2023-01-28T04:12:17;99633.68;;;-1.44;79.63
65872;BME280;52653;50.080;21.992;2023-01-28T04:15:09;99636.77;;;-1.44;79.61
65872;BME280;52653;50.080;21.992;2023-01-28T04:18:05;99632.95;;;-1.45;79.39
65872;BME280;52653;50.080;21.992;2023-01-28T04:20:56;99635.04;;;-1.45;79.45
65872;BME280;52653;50.080;21.992;2023-01-28T04:23:47;99636.10;;;-1.44;79.65
65872;BME280;52653;50.080;21.992;2023-01-28T04:26:38;99639.05;;;-1.43;79.48
65872;BME280;52653;50.080;21.992;2023-01-28T04:29:30;99636.10;;;-1.43;79.28
65872;BME280;52653;50.080;21.992;2023-01-28T04:32:22;99641.02;;;-1.45;79.03
65872;BME280;52653;50.080;21.992;2023-01-28T04:35:13;99641.66;;;-1.47;78.89
65872;BME280;52653;50.080;21.992;2023-01-28T04:38:11;99643.70;;;-1.47;79.20
65872;BME280;52653;50.080;21.992;2023-01-28T04:41:08;99641.14;;;-1.47;79.12
65872;BME280;52653;50.080;21.992;2023-01-28T04:43:59;99645.32;;;-1.45;79.03
65872;BME280;52653;50.080;21.992;2023-01-28T04:46:56;99651.50;;;-1.46;78.43
65872;BME280;52653;50.080;21.992;2023-01-28T04:49:50;99653.67;;;-1.47;78.74
65872;BME280;52653;50.080;21.992;2023-01-28T04:52:41;99658.97;;;-1.48;78.60
65872;BME280;52653;50.080;21.992;2023-01-28T04:55:32;99659.77;;;-1.50;78.39
65872;BME280;52653;50.080;21.992;2023-01-28T04:58:24;99653.88;;;-1.51;78.64
65872;BME280;52653;50.080;21.992;2023-01-28T05:01:10;99654.04;;;-1.51;78.70
65872;BME280;52653;50.080;21.992;2023-01-28T05:04:01;99655.98;;;-1.53;78.61
65872;BME280;52653;50.080;21.992;2023-01-28T05:06:54;99657.12;;;-1.54;78.55
65872;BME280;52653;50.080;21.992;2023-01-28T05:09:45;99659.83;;;-1.55;78.48
65872;BME280;52653;50.080;21.992;2023-01-28T05:12:27;99655.46;;;-1.56;78.56
65872;BME280;52653;50.080;21.992;2023-01-28T05:15:20;99656.21;;;-1.59;78.71
65872;BME280;52653;50.080;21.992;2023-01-28T05:18:33;99658.48;;;-1.62;78.54
65872;BME280;52653;50.080;21.992;2023-01-28T05:21:25;99662.48;;;-1.64;78.72
65872;BME280;52653;50.080;21.992;2023-01-28T05:24:13;99664.83;;;-1.65;78.91
65872;BME280;52653;50.080;21.992;2023-01-28T05:26:56;99662.96;;;-1.65;79.06
65872;BME280;52653;50.080;21.992;2023-01-28T05:29:49;99666.95;;;-1.64;79.08
65872;BME280;52653;50.080;21.992;2023-01-28T05:32:34;99668.01;;;-1.64;79.19
65872;BME280;52653;50.080;21.992;2023-01-28T05:35:25;99671.76;;;-1.61;79.40
65872;BME280;52653;50.080;21.992;2023-01-28T05:38:10;99671.86;;;-1.59;79.19
65872;BME280;52653;50.080;21.992;2023-01-28T05:40:56;99673.11;;;-1.58;79.28
65872;BME280;52653;50.080;21.992;2023-01-28T05:43:47;99673.83;;;-1.57;79.07
65872;BME280;52653;50.080;21.992;2023-01-28T05:46:48;99672.84;;;-1.57;79.08
65872;BME280;52653;50.080;21.992;2023-01-28T05:49:39;99675.64;;;-1.55;79.31
65872;BME280;52653;50.080;21.992;2023-01-28T05:52:28;99678.30;;;-1.54;79.39
65872;BME280;52653;50.080;21.992;2023-01-28T05:55:16;99677.33;;;-1.53;79.08
65872;BME280;52653;50.080;21.992;2023-01-28T05:58:09;99678.91;;;-1.52;79.45
65872;BME280;52653;50.080;21.992;2023-01-28T06:00:53;99683.90;;;-1.48;79.39
65872;BME280;52653;50.080;21.992;2023-01-28T06:03:44;99684.58;;;-1.49;78.97
65872;BME280;52653;50.080;21.992;2023-01-28T06:06:35;99686.41;;;-1.50;79.02
65872;BME280;52653;50.080;21.992;2023-01-28T06:09:26;99682.30;;;-1.50;78.79
65872;BME280;52653;50.080;21.992;2023-01-28T06:12:18;99683.66;;;-1.50;78.89
65872;BME280;52653;50.080;21.992;2023-01-28T06:15:17;99684.27;;;-1.52;78.76
65872;BME280;52653;50.080;21.992;2023-01-28T06:18:23;99689.85;;;-1.53;78.85
65872;BME280;52653;50.080;21.992;2023-01-28T06:21:14;99688.66;;;-1.53;78.66
65872;BME280;52653;50.080;21.992;2023-01-28T06:23:45;99689.98;;;-1.54;78.47
65872;BME280;52653;50.080;21.992;2023-01-28T06:26:37;99690.47;;;-1.54;78.27
65872;BME280;52653;50.080;21.992;2023-01-28T06:29:28;99692.89;;;-1.54;78.44
65872;BME280;52653;50.080;21.992;2023-01-28T06:32:18;99696.21;;;-1.53;78.38
65872;BME280;52653;50.080;21.992;2023-01-28T06:35:10;99694.04;;;-1.52;78.55
65872;BME280;52653;50.080;21.992;2023-01-28T06:38:01;99696.98;;;-1.48;78.50
65872;BME280;52653;50.080;21.992;2023-01-28T06:40:54;99706.50;;;-1.47;78.27
65872;BME280;52653;50.080;21.992;2023-01-28T06:43:41;99710.58;;;-1.44;78.25
65872;BME280;52653;50.080;21.992;2023-01-28T06:46:24;99716.10;;;-1.40;78.48
65872;BME280;52653;50.080;21.992;2023-01-28T06:49:14;99721.09;;;-1.37;77.73
65872;BME280;52653;50.080;21.992;2023-01-28T06:52:06;99720.64;;;-1.35;77.43
65872;BME280;52653;50.080;21.992;2023-01-28T06:54:57;99725.40;;;-1.33;77.65
65872;BME280;52653;50.080;21.992;2023-01-28T06:57:50;99723.85;;;-1.29;77.70
65872;BME280;52653;50.080;21.992;2023-01-28T07:00:41;99731.84;;;-1.24;77.83
65872;BME280;52653;50.080;21.992;2023-01-28T07:03:26;99728.84;;;-1.22;77.01
65872;BME280;52653;50.080;21.992;2023-01-28T07:06:17;99733.31;;;-1.18;77.04
65872;BME280;52653;50.080;21.992;2023-01-28T07:09:00;99733.37;;;-1.13;77.10
65872;BME280;52653;50.080;21.992;2023-01-28T07:11:52;99731.10;;;-1.07;77.21
65872;BME280;52653;50.080;21.992;2023-01-28T07:14:43;99737.07;;;-1.01;76.90
65872;BME280;52653;50.080;21.992;2023-01-28T07:17:34;99737.36;;;-0.95;76.68
65872;BME280;52653;50.080;21.992;2023-01-28T07:20:19;99741.62;;;-0.92;76.00
65872;BME280;52653;50.080;21.992;2023-01-28T07:23:11;99744.79;;;-0.90;75.92
65872;BME280;52653;50.080;21.992;2023-01-28T07:26:02;99749.19;;;-0.88;75.76
65872;BME280;52653;50.080;21.992;2023-01-28T07:28:53;99752.87;;;-0.87;75.50
65872;BME280;52653;50.080;21.992;2023-01-28T07:31:44;99754.47;;;-0.86;75.40
65872;BME280;52653;50.080;21.992;2023-01-28T07:34:16;99755.16;;;-0.86;74.83
65872;BME280;52653;50.080;21.992;2023-01-28T07:36:49;99760.61;;;-0.87;74.80
65872;BME280;52653;50.080;21.992;2023-01-28T07:39:41;99760.50;;;-0.86;74.91
65872;BME280;52653;50.080;21.992;2023-01-28T07:42:14;99758.17;;;-0.84;74.83
65872;BME280;52653;50.080;21.992;2023-01-28T07:45:10;99757.66;;;-0.80;75.23
65872;BME280;52653;50.080;21.992;2023-01-28T07:47:44;99759.68;;;-0.77;74.94
65872;BME280;52653;50.080;21.992;2023-01-28T07:50:28;99759.84;;;-0.74;74.67
65872;BME280;52653;50.080;21.992;2023-01-28T07:53:20;99758.02;;;-0.69;74.78
65872;BME280;52653;50.080;21.992;2023-01-28T07:55:59;99757.06;;;-0.67;74.42
65872;BME280;52653;50.080;21.992;2023-01-28T07:58:42;99757.48;;;-0.65;74.20
65872;BME280;52653;50.080;21.992;2023-01-28T08:01:21;99759.61;;;-0.64;74.12
65872;BME280;52653;50.080;21.992;2023-01-28T08:03:53;99756.02;;;-0.64;74.12
65872;BME280;52653;50.080;21.992;2023-01-28T08:06:28;99761.30;;;-0.64;73.78
65872;BME280;52653;50.080;21.992;2023-01-28T08:09:20;99762.29;;;-0.62;74.23
65872;BME280;52653;50.080;21.992;2023-01-28T08:11:56;99764.94;;;-0.60;74.22
65872;BME280;52653;50.080;21.992;2023-01-28T08:14:27;99769.04;;;-0.57;74.49
65872;BME280;52653;50.080;21.992;2023-01-28T08:17:03;99767.98;;;-0.50;74.53
65872;BME280;52653;50.080;21.992;2023-01-28T08:19:47;99769.87;;;-0.42;74.28
65872;BME280;52653;50.080;21.992;2023-01-28T08:22:25;99768.86;;;-0.34;74.35
65872;BME280;52653;50.080;21.992;2023-01-28T08:24:56;99768.29;;;-0.24;74.40
65872;BME280;52653;50.080;21.992;2023-01-28T08:27:48;99772.13;;;-0.19;73.28
65872;BME280;52653;50.080;21.992;2023-01-28T08:30:30;99773.98;;;-0.16;73.40
65872;BME280;52653;50.080;21.992;2023-01-28T08:33:04;99776.04;;;-0.12;73.54
65872;BME280;52653;50.080;21.992;2023-01-28T08:35:56;99767.68;;;-0.06;73.77
65872;BME280;52653;50.080;21.992;2023-01-28T08:38:27;99767.43;;;0.00;73.66
65872;BME280;52653;50.080;21.992;2023-01-28T08:41:20;99766.91;;;0.04;72.85
65872;BME280;52653;50.080;21.992;2023-01-28T08:43:56;99768.44;;;0.07;72.69
65872;BME280;52653;50.080;21.992;2023-01-28T08:46:48;99771.14;;;0.10;72.46
65872;BME280;52653;50.080;21.992;2023-01-28T08:49:39;99769.14;;;0.16;72.59
65872;BME280;52653;50.080;21.992;2023-01-28T08:52:10;99768.80;;;0.20;72.28
65872;BME280;52653;50.080;21.992;2023-01-28T08:54:55;99774.22;;;0.22;72.01
65872;BME280;52653;50.080;21.992;2023-01-28T08:59:43;99779.46;;;0.23;71.50
65872;BME280;52653;50.080;21.992;2023-01-28T09:04:38;99782.30;;;0.20;72.36
65872;BME280;52653;50.080;21.992;2023-01-28T09:07:25;99785.45;;;0.10;71.71
65872;BME280;52653;50.080;21.992;2023-01-28T09:10:19;99786.05;;;0.04;72.26
65872;BME280;52653;50.080;21.992;2023-01-28T09:13:15;99790.12;;;0.02;72.35
65872;BME280;52653;50.080;21.992;2023-01-28T09:16:09;99791.46;;;0.01;72.19
65872;BME280;52653;50.080;21.992;2023-01-28T09:19:06;99789.48;;;0.03;72.42
65872;BME280;52653;50.080;21.992;2023-01-28T09:21:59;99793.08;;;0.07;71.93
65872;BME280;52653;50.080;21.992;2023-01-28T09:24:52;99791.48;;;0.10;72.52
65872;BME280;52653;50.080;21.992;2023-01-28T09:27:45;99787.94;;;0.15;72.49
65872;BME280;52653;50.080;21.992;2023-01-28T09:30:39;99792.73;;;0.23;72.23
65872;BME280;52653;50.080;21.992;2023-01-28T09:33:33;99794.44;;;0.31;72.05
65872;BME280;52653;50.080;21.992;2023-01-28T09:36:27;99793.91;;;0.35;71.60
65872;BME280;52653;50.080;21.992;2023-01-28T09:39:12;99790.88;;;0.40;71.37
65872;BME280;52653;50.080;21.992;2023-01-28T09:42:29;99787.98;;;0.49;71.46
65872;BME280;52653;50.080;21.992;2023-01-28T09:45:34;99780.27;;;0.59;71.04
65872;BME280;52653;50.080;21.992;2023-01-28T09:48:21;99777.50;;;0.63;70.72
65872;BME280;52653;50.080;21.992;2023-01-28T09:54:26;99773.79;;;0.74;70.95
65872;BME280;52653;50.080;21.992;2023-01-28T09:57:24;99772.73;;;0.81;70.65
65872;BME280;52653;50.080;21.992;2023-01-28T10:00:23;99764.66;;;0.87;70.30
65872;BME280;52653;50.080;21.992;2023-01-28T10:03:39;99768.64;;;0.92;69.88
65872;BME280;52653;50.080;21.992;2023-01-28T10:06:44;99766.98;;;0.93;70.06
65872;BME280;52653;50.080;21.992;2023-01-28T10:09:45;99768.91;;;0.99;69.77
65872;BME280;52653;50.080;21.992;2023-01-28T10:12:57;99764.31;;;1.01;69.08
65872;BME280;52653;50.080;21.992;2023-01-28T10:16:04;99756.71;;;1.04;68.82
65872;BME280;52653;50.080;21.992;2023-01-28T10:19:09;99761.40;;;1.14;68.68
65872;BME280;52653;50.080;21.992;2023-01-28T10:22:08;99756.14;;;1.26;68.59
65872;BME280;52653;50.080;21.992;2023-01-28T10:24:59;99754.80;;;1.36;68.31
65872;BME280;52653;50.080;21.992;2023-01-28T10:27:57;99757.73;;;1.44;67.38
65872;BME280;52653;50.080;21.992;2023-01-28T10:30:43;99753.89;;;1.48;66.96
65872;BME280;52653;50.080;21.992;2023-01-28T10:33:36;99753.40;;;1.49;66.27
65872;BME280;52653;50.080;21.992;2023-01-28T10:36:31;99754.28;;;1.50;66.28
65872;BME280;52653;50.080;21.992;2023-01-28T10:39:19;99752.15;;;1.53;66.41
65872;BME280;52653;50.080;21.992;2023-01-28T10:42:25;99744.75;;;1.62;66.82
65872;BME280;52653;50.080;21.992;2023-01-28T10:45:22;99740.64;;;1.74;66.23
65872;BME280;52653;50.080;21.992;2023-01-28T10:48:22;99742.61;;;1.80;65.92
65872;BME280;52653;50.080;21.992;2023-01-28T10:51:15;99737.46;;;1.87;65.83
65872;BME280;52653;50.080;21.992;2023-01-28T10:54:21;99741.74;;;1.85;64.83
65872;BME280;52653;50.080;21.992;2023-01-28T10:57:16;99740.64;;;1.83;64.69
65872;BME280;52653;50.080;21.992;2023-01-28T11:00:24;99737.79;;;1.81;64.69
65872;BME280;52653;50.080;21.992;2023-01-28T11:03:18;99734.82;;;1.85;65.65
65872;BME280;52653;50.080;21.992;2023-01-28T11:06:01;99736.00;;;1.94;65.46
65872;BME280;52653;50.080;21.992;2023-01-28T11:08:57;99731.67;;;1.99;64.40
65872;BME280;52653;50.080;21.992;2023-01-28T11:11:52;99727.81;;;1.97;63.96
65872;BME280;52653;50.080;21.992;2023-01-28T11:14:52;99727.44;;;1.96;63.95
65872;BME280;52653;50.080;21.992;2023-01-28T11:17:51;99725.03;;;1.97;64.03
65872;BME280;52653;50.080;21.992;2023-01-28T11:20:53;99723.77;;;2.01;63.82
65872;BME280;52653;50.080;21.992;2023-01-28T11:23:52;99723.53;;;2.03;64.24
65872;BME280;52653;50.080;21.992;2023-01-28T11:26:51;99722.09;;;2.02;63.43
65872;BME280;52653;50.080;21.992;2023-01-28T11:29:46;99721.28;;;1.99;63.74
65872;BME280;52653;50.080;21.992;2023-01-28T11:32:39;99718.14;;;1.98;63.68
65872;BME280;52653;50.080;21.992;2023-01-28T11:35:32;99719.16;;;1.97;63.30
65872;BME280;52653;50.080;21.992;2023-01-28T11:38:26;99717.85;;;1.94;63.22
65872;BME280;52653;50.080;21.992;2023-01-28T11:41:22;99718.09;;;1.96;63.97
65872;BME280;52653;50.080;21.992;2023-01-28T11:44:19;99718.08;;;2.01;64.20
65872;BME280;52653;50.080;21.992;2023-01-28T11:47:21;99715.86;;;2.06;64.11
65872;BME280;52653;50.080;21.992;2023-01-28T11:50:26;99714.33;;;2.13;63.63
65872;BME280;52653;50.080;21.992;2023-01-28T11:53:26;99713.17;;;2.19;63.87
65872;BME280;52653;50.080;21.992;2023-01-28T11:56:44;99710.45;;;2.26;63.63
65872;BME280;52653;50.080;21.992;2023-01-28T11:59:55;99707.98;;;2.29;63.32
65872;BME280;52653;50.080;21.992;2023-01-28T12:02:54;99704.77;;;2.32;63.44
65872;BME280;52653;50.080;21.992;2023-01-28T12:05:52;99709.90;;;2.35;63.02
65872;BME280;52653;50.080;21.992;2023-01-28T12:08:52;99709.31;;;2.28;62.16
65872;BME280;52653;50.080;21.992;2023-01-28T12:12:06;99707.88;;;2.21;62.66
65872;BME280;52653;50.080;21.992;2023-01-28T12:15:15;99707.38;;;2.22;63.06
65872;BME280;52653;50.080;21.992;2023-01-28T12:18:20;99701.84;;;2.22;62.91
65872;BME280;52653;50.080;21.992;2023-01-28T12:21:26;99704.90;;;2.20;63.55
65872;BME280;52653;50.080;21.992;2023-01-28T12:24:34;99709.38;;;2.15;63.61
65872;BME280;52653;50.080;21.992;2023-01-28T12:27:37;99712.23;;;2.07;63.27
65872;BME280;52653;50.080;21.992;2023-01-28T12:30:42;99712.11;;;2.03;63.63
65872;BME280;52653;50.080;21.992;2023-01-28T12:33:53;99710.30;;;2.01;64.02
65872;BME280;52653;50.080;21.992;2023-01-28T12:36:57;99711.45;;;2.00;64.18
65872;BME280;52653;50.080;21.992;2023-01-28T12:40:09;99713.09;;;1.97;63.86
65872;BME280;52653;50.080;21.992;2023-01-28T12:43:11;99707.70;;;1.96;64.48
65872;BME280;52653;50.080;21.992;2023-01-28T12:45:57;99709.27;;;2.01;64.74
65872;BME280;52653;50.080;21.992;2023-01-28T12:48:41;99711.84;;;2.05;64.61
65872;BME280;52653;50.080;21.992;2023-01-28T12:52:00;99709.22;;;2.04;64.29
65872;BME280;52653;50.080;21.992;2023-01-28T12:55:00;99713.05;;;2.05;64.62
65872;BME280;52653;50.080;21.992;2023-01-28T12:57:50;99712.36;;;2.05;64.37
65872;BME280;52653;50.080;21.992;2023-01-28T13:00:47;99712.48;;;1.99;63.68
65872;BME280;52653;50.080;21.992;2023-01-28T13:03:37;99713.73;;;2.00;64.30
65872;BME280;52653;50.080;21.992;2023-01-28T13:06:37;99713.40;;;2.06;64.78
65872;BME280;52653;50.080;21.992;2023-01-28T13:09:34;99719.09;;;2.10;64.17
65872;BME280;52653;50.080;21.992;2023-01-28T13:12:14;99718.13;;;2.07;63.38
65872;BME280;52653;50.080;21.992;2023-01-28T13:14:54;99720.94;;;1.94;63.13
65872;BME280;52653;50.080;21.992;2023-01-28T13:17:51;99723.50;;;1.83;63.89
65872;BME280;52653;50.080;21.992;2023-01-28T13:20:45;99726.77;;;1.82;64.48
65872;BME280;52653;50.080;21.992;2023-01-28T13:23:39;99726.55;;;1.76;64.40
65872;BME280;52653;50.080;21.992;2023-01-28T13:26:40;99730.42;;;1.73;64.61
65872;BME280;52653;50.080;21.992;2023-01-28T13:29:34;99732.15;;;1.68;64.82
65872;BME280;52653;50.080;21.992;2023-01-28T13:32:33;99735.16;;;1.61;65.27
65872;BME280;52653;50.080;21.992;2023-01-28T13:35:32;99739.52;;;1.57;65.40
65872;BME280;52653;50.080;21.992;2023-01-28T13:38:26;99743.79;;;1.51;65.74
65872;BME280;52653;50.080;21.992;2023-01-28T13:41:20;99742.61;;;1.47;65.92
65872;BME280;52653;50.080;21.992;2023-01-28T13:44:25;99742.67;;;1.40;65.82
65872;BME280;52653;50.080;21.992;2023-01-28T13:47:25;99745.73;;;1.29;66.19
65872;BME280;52653;50.080;21.992;2023-01-28T13:50:22;99748.64;;;1.24;66.55
65872;BME280;52653;50.080;21.992;2023-01-28T13:53:22;99751.80;;;1.20;66.65
65872;BME280;52653;50.080;21.992;2023-01-28T13:56:21;99750.07;;;1.20;67.08
65872;BME280;52653;50.080;21.992;2023-01-28T13:59:43;99746.90;;;1.18;67.04
65872;BME280;52653;50.080;21.992;2023-01-28T14:09:54;99760.45;;;1.03;67.84
65872;BME280;52653;50.080;21.992;2023-01-28T14:13:15;99756.15;;;1.03;67.96
65872;BME280;52653;50.080;21.992;2023-01-28T14:16:22;99759.73;;;1.06;68.23
65872;BME280;52653;50.080;21.992;2023-01-28T14:19:21;99759.02;;;1.10;68.18
65872;BME280;52653;50.080;21.992;2023-01-28T14:22:15;99768.45;;;1.17;68.18
65872;BME280;52653;50.080;21.992;2023-01-28T14:25:01;99768.35;;;1.24;68.38
65872;BME280;52653;50.080;21.992;2023-01-28T14:27:46;99767.77;;;1.23;68.03
65872;BME280;52653;50.080;21.992;2023-01-28T14:30:27;99767.49;;;1.20;68.08
65872;BME280;52653;50.080;21.992;2023-01-28T14:33:22;99765.45;;;1.12;68.13
65872;BME280;52653;50.080;21.992;2023-01-28T14:36:08;99763.33;;;1.06;68.48
65872;BME280;52653;50.080;21.992;2023-01-28T14:39:02;99763.20;;;1.02;68.71
65872;BME280;52653;50.080;21.992;2023-01-28T14:41:54;99768.42;;;0.95;68.95
65872;BME280;52653;50.080;21.992;2023-01-28T14:44:50;99764.45;;;0.86;69.09
65872;BME280;52653;50.080;21.992;2023-01-28T14:47:48;99764.48;;;0.82;69.54
65872;BME280;52653;50.080;21.992;2023-01-28T14:51:03;99766.79;;;0.79;69.87
65872;BME280;52653;50.080;21.992;2023-01-28T14:54:16;99771.38;;;0.74;69.93
65872;BME280;52653;50.080;21.992;2023-01-28T14:57:23;99774.68;;;0.66;70.00
65872;BME280;52653;50.080;21.992;2023-01-28T15:00:23;99779.43;;;0.55;70.23
65872;BME280;52653;50.080;21.992;2023-01-28T15:03:19;99785.99;;;0.47;70.66
65872;BME280;52653;50.080;21.992;2023-01-28T15:06:18;99785.91;;;0.41;70.81
65872;BME280;52653;50.080;21.992;2023-01-28T15:09:14;99789.14;;;0.40;70.91
65872;BME280;52653;50.080;21.992;2023-01-28T15:12:08;99788.89;;;0.42;70.96
65872;BME280;52653;50.080;21.992;2023-01-28T15:15:10;99791.09;;;0.45;70.67
65872;BME280;52653;50.080;21.992;2023-01-28T15:18:12;99795.70;;;0.52;70.58
65872;BME280;52653;50.080;21.992;2023-01-28T15:21:08;99799.36;;;0.57;70.59
65872;BME280;52653;50.080;21.992;2023-01-28T15:24:01;99796.73;;;0.61;70.76
65872;BME280;52653;50.080;21.992;2023-01-28T15:26:55;99795.16;;;0.60;70.44
65872;BME280;52653;50.080;21.992;2023-01-28T15:29:55;99796.18;;;0.55;70.48
65872;BME280;52653;50.080;21.992;2023-01-28T15:32:58;99797.23;;;0.47;70.93